< < Back
Terminal Aerodrome Forecast


Current Version              Previous Versions:   1  2  3  4  5  6  7  8  9  

Terminal Aerodrome Forecast

248
FTUS42 KGSP 012340
TAFHKY
TAF
KHKY 012340Z 0200/0224 27007KT P6SM VCSH BKN050
     FM020500 00000KT P6SM OVC045
     FM021500 22006KT P6SM BKN024 PROB30 0215/0217 4SM TSRA
      BKN014CB=

Latest METAR

028
SAUS70 KWBC 020900 RRG
MTRHKY
METAR KHKY 020853Z AUTO 00000KT 6SM BR FEW080 BKN110 21/18 A2995 RMK AO2
SLP119 T02060183 56008


USA.gov is the U.S. government's official web portal to all federal, state and local government web resources and services.